createdAt,value
2022-12-04T00:01:52.775Z,101518.91
2022-12-04T00:04:19.165Z,101519.75
2022-12-04T00:06:45.636Z,101517.25
2022-12-04T00:09:11.988Z,101525.38
2022-12-04T00:11:38.294Z,101525.00
2022-12-04T00:14:07.214Z,101522.31
2022-12-04T00:16:33.986Z,101515.22
2022-12-04T00:19:00.290Z,101523.59
2022-12-04T00:21:26.754Z,101514.88
2022-12-04T00:23:53.169Z,101515.94
2022-12-04T00:26:19.475Z,101520.97
2022-12-04T00:28:46.097Z,101523.06
2022-12-04T00:31:12.593Z,101514.59
2022-12-04T00:33:39.000Z,101512.91
2022-12-04T00:36:05.444Z,101511.50
2022-12-04T00:38:31.767Z,101509.28
2022-12-04T00:40:58.188Z,101516.53
2022-12-04T00:43:24.454Z,101518.88
2022-12-04T00:45:50.815Z,101507.25
2022-12-04T00:48:17.220Z,101511.44
2022-12-04T00:50:43.719Z,101507.09
2022-12-04T00:53:10.036Z,101514.00
2022-12-04T00:55:36.450Z,101510.72
2022-12-04T00:58:02.852Z,101504.13
2022-12-04T01:00:29.408Z,101507.84
2022-12-04T01:02:56.019Z,101503.50
2022-12-04T01:05:22.578Z,101501.25
2022-12-04T01:07:48.905Z,101502.50
2022-12-04T01:10:15.342Z,101498.41
2022-12-04T01:12:41.632Z,101497.81
2022-12-04T01:15:07.901Z,101499.44
2022-12-04T01:17:34.268Z,101500.50
2022-12-04T01:20:00.612Z,101492.59
2022-12-04T01:22:26.944Z,101488.47
2022-12-04T01:24:53.328Z,101486.84
2022-12-04T01:27:19.816Z,101482.94
2022-12-04T01:29:46.072Z,101481.25
2022-12-04T01:32:12.563Z,101478.56
2022-12-04T01:34:38.933Z,101491.47
2022-12-04T01:37:05.446Z,101501.44
2022-12-04T01:39:31.826Z,101493.56
2022-12-04T01:41:58.396Z,101489.81
2022-12-04T01:44:24.949Z,101486.91
2022-12-04T01:46:51.339Z,101487.56
2022-12-04T01:49:17.620Z,101486.72
2022-12-04T01:51:44.223Z,101490.69
2022-12-04T01:54:10.514Z,101501.97
2022-12-04T01:56:36.881Z,101491.97
2022-12-04T01:59:03.257Z,101493.41
2022-12-04T02:01:29.600Z,101491.75
2022-12-04T02:03:59.868Z,101489.28
2022-12-04T02:06:27.371Z,101485.78
2022-12-04T02:09:03.746Z,101479.53
2022-12-04T02:11:30.199Z,101468.75
2022-12-04T02:14:06.414Z,101471.47
2022-12-04T02:16:32.771Z,101473.09
2022-12-04T02:18:59.202Z,101471.66
2022-12-04T02:21:26.160Z,101471.66
2022-12-04T02:23:52.547Z,101466.28
2022-12-04T02:26:19.020Z,101455.94
2022-12-04T02:28:45.547Z,101452.22
2022-12-04T02:31:11.888Z,101452.22
2022-12-04T02:33:38.239Z,101455.72
2022-12-04T02:36:04.551Z,101453.44
2022-12-04T02:38:30.910Z,101452.66
2022-12-04T02:40:57.369Z,101450.16
2022-12-04T02:43:23.700Z,101449.13
2022-12-04T02:45:50.148Z,101440.22
2022-12-04T02:48:16.654Z,101442.31
2022-12-04T02:50:42.934Z,101431.50
2022-12-04T02:53:09.184Z,101429.66
2022-12-04T02:55:35.601Z,101438.53
2022-12-04T02:58:02.126Z,101433.84
2022-12-04T03:00:28.379Z,101437.34
2022-12-04T03:02:57.180Z,101434.66
2022-12-04T03:05:24.031Z,101436.31
2022-12-04T03:07:50.404Z,101437.34
2022-12-04T03:10:17.188Z,101425.75
2022-12-04T03:12:43.615Z,101420.34
2022-12-04T03:15:10.170Z,101420.56
2022-12-04T03:17:36.416Z,101424.91
2022-12-04T03:20:02.826Z,101425.38
2022-12-04T03:22:29.083Z,101431.59
2022-12-04T03:24:55.444Z,101435.91
2022-12-04T03:27:22.010Z,101426.63
2022-12-04T03:29:48.312Z,101432.84
2022-12-04T03:32:14.614Z,101439.31
2022-12-04T03:34:40.904Z,101433.91
2022-12-04T03:37:07.240Z,101436.81
2022-12-04T03:39:33.538Z,101434.13
2022-12-04T03:41:59.924Z,101437.03
2022-12-04T03:44:26.189Z,101434.34
2022-12-04T03:46:52.467Z,101435.19
2022-12-04T03:49:18.766Z,101437.25
2022-12-04T03:51:45.135Z,101430.22
2022-12-04T03:54:11.559Z,101437.25
2022-12-04T03:56:37.809Z,101422.13
2022-12-04T03:59:04.236Z,101419.22
2022-12-04T04:01:30.806Z,101417.81
2022-12-04T04:03:57.601Z,101415.09
2022-12-04T04:06:24.645Z,101419.66
2022-12-04T04:08:51.160Z,101413.91
2022-12-04T04:11:17.878Z,101416.81
2022-12-04T04:13:44.308Z,101420.09
2022-12-04T04:16:11.119Z,101431.72
2022-12-04T04:18:37.609Z,101422.56
2022-12-04T04:21:03.897Z,101416.16
2022-12-04T04:23:30.192Z,101421.78
2022-12-04T04:25:56.469Z,101419.88
2022-12-04T04:28:22.773Z,101422.00
2022-12-04T04:30:49.142Z,101427.16
2022-12-04T04:33:15.577Z,101423.03
2022-12-04T04:35:42.057Z,101425.75
2022-12-04T04:38:08.493Z,101423.84
2022-12-04T04:40:35.014Z,101424.06
2022-12-04T04:43:01.306Z,101419.50
2022-12-04T04:45:27.560Z,101428.66
2022-12-04T04:47:53.879Z,101425.13
2022-12-04T04:50:20.184Z,101432.38
2022-12-04T04:52:46.658Z,101434.25
2022-12-04T04:55:12.979Z,101435.06
2022-12-04T04:57:39.354Z,101430.94
2022-12-04T05:00:06.079Z,101429.31
2022-12-04T05:02:32.419Z,101425.56
2022-12-04T05:04:58.827Z,101419.34
2022-12-04T05:07:25.162Z,101430.16
2022-12-04T05:09:51.604Z,101431.78
2022-12-04T05:12:17.884Z,101429.31
2022-12-04T05:14:44.434Z,101441.13
2022-12-04T05:17:12.802Z,101428.50
2022-12-04T05:19:39.385Z,101441.34
2022-12-04T05:22:05.783Z,101441.34
2022-12-04T05:24:32.177Z,101440.53
2022-12-04T05:26:58.491Z,101436.81
2022-12-04T05:29:24.756Z,101437.81
2022-12-04T05:31:51.077Z,101438.06
2022-12-04T05:34:17.379Z,101428.31
2022-12-04T05:36:43.672Z,101423.75
2022-12-04T05:39:10.002Z,101417.53
2022-12-04T05:41:36.345Z,101412.16
2022-12-04T05:44:02.673Z,101410.50
2022-12-04T05:46:29.114Z,101421.06
2022-12-04T05:48:55.448Z,101420.22
2022-12-04T05:51:21.773Z,101405.94
2022-12-04T05:53:48.097Z,101414.25
2022-12-04T05:56:14.450Z,101413.81
2022-12-04T05:58:40.893Z,101412.16
2022-12-04T06:01:07.184Z,101411.34
2022-12-04T06:03:33.610Z,101416.94
2022-12-04T06:05:59.973Z,101410.94
2022-12-04T06:08:26.299Z,101412.81
2022-12-04T06:10:52.573Z,101418.22
2022-12-04T06:13:18.873Z,101426.09
2022-12-04T06:15:45.161Z,101432.28
2022-12-04T06:18:11.451Z,101427.09
2022-12-04T06:20:37.824Z,101425.03
2022-12-04T06:23:04.171Z,101416.09
2022-12-04T06:25:30.504Z,101416.31
2022-12-04T06:27:56.984Z,101429.59
2022-12-04T06:30:23.749Z,101422.78
2022-12-04T06:32:50.087Z,101422.56
2022-12-04T06:35:16.390Z,101416.31
2022-12-04T06:37:42.672Z,101408.50
2022-12-04T06:40:09.044Z,101411.19
2022-12-04T06:42:35.482Z,101423.59
2022-12-04T06:45:01.911Z,101412.00
2022-12-04T06:47:28.323Z,101414.69
2022-12-04T06:49:55.001Z,101414.69
2022-12-04T06:52:21.490Z,101412.00
2022-12-04T06:54:47.739Z,101407.03
2022-12-04T06:57:14.071Z,101402.69
2022-12-04T06:59:40.407Z,101411.84
2022-12-04T07:02:06.769Z,101399.41
2022-12-04T07:04:33.143Z,101397.53
2022-12-04T07:06:59.640Z,101403.75
2022-12-04T07:09:26.151Z,101406.44
2022-12-04T07:11:52.442Z,101398.38
2022-12-04T07:14:18.748Z,101402.13
2022-12-04T07:16:45.077Z,101404.59
2022-12-04T07:19:11.502Z,101403.97
2022-12-04T07:21:37.845Z,101414.53
2022-12-04T07:24:04.208Z,101398.38
2022-12-04T07:26:30.595Z,101408.56
2022-12-04T07:28:56.932Z,101405.63
2022-12-04T07:31:23.305Z,101403.38
2022-12-04T07:33:49.814Z,101408.56
2022-12-04T07:36:16.228Z,101417.44
2022-12-04T07:38:42.513Z,101416.63
2022-12-04T07:41:08.813Z,101412.06
2022-12-04T07:43:35.130Z,101403.16
2022-12-04T07:46:01.655Z,101410.19
2022-12-04T07:48:33.155Z,101425.75
2022-12-04T07:51:00.011Z,101412.50
2022-12-04T07:53:26.304Z,101416.03
2022-12-04T07:55:52.660Z,101413.31
2022-12-04T07:58:19.273Z,101417.06
2022-12-04T08:00:45.673Z,101415.44
2022-12-04T08:03:12.263Z,101419.56
2022-12-04T08:05:38.635Z,101425.97
2022-12-04T08:08:05.057Z,101427.84
2022-12-04T08:10:31.544Z,101431.34
2022-12-04T08:12:57.869Z,101431.34
2022-12-04T08:15:24.222Z,101423.25
2022-12-04T08:17:50.517Z,101422.47
2022-12-04T08:20:16.914Z,101430.31
2022-12-04T08:22:43.186Z,101422.25
2022-12-04T08:25:09.498Z,101431.59
2022-12-04T08:27:35.803Z,101437.19
2022-12-04T08:30:02.392Z,101439.69
2022-12-04T08:32:28.847Z,101432.63
2022-12-04T08:34:56.084Z,101433.25
2022-12-04T08:37:22.540Z,101427.22
2022-12-04T08:39:48.831Z,101426.41
2022-12-04T08:42:15.146Z,101422.06
2022-12-04T08:44:41.461Z,101437.19
2022-12-04T08:47:07.738Z,101436.38
2022-12-04T08:49:34.084Z,101437.84
2022-12-04T08:52:00.348Z,101440.31
2022-12-04T08:54:29.400Z,101451.69
2022-12-04T08:56:57.988Z,101442.81
2022-12-04T08:59:24.306Z,101450.25
2022-12-04T09:01:50.788Z,101451.09
2022-12-04T09:04:17.258Z,101443.22
2022-12-04T09:06:43.615Z,101451.09
2022-12-04T09:09:10.029Z,101450.25
2022-12-04T09:11:36.333Z,101444.06
2022-12-04T09:14:02.838Z,101449.69
2022-12-04T09:16:29.264Z,101451.31
2022-12-04T09:18:55.760Z,101448.63
2022-12-04T09:21:22.109Z,101448.63
2022-12-04T09:23:48.675Z,101455.66
2022-12-04T09:26:15.038Z,101450.25
2022-12-04T09:28:41.356Z,101446.97
2022-12-04T09:31:07.693Z,101444.06
2022-12-04T09:33:33.986Z,101437.03
2022-12-04T09:36:00.360Z,101442.44
2022-12-04T09:38:26.622Z,101429.97
2022-12-04T09:40:52.939Z,101427.28
2022-12-04T09:43:19.514Z,101418.41
2022-12-04T09:45:45.952Z,101426.25
2022-12-04T09:48:12.422Z,101426.25
2022-12-04T09:50:38.750Z,101419.19
2022-12-04T09:53:05.027Z,101418.41
2022-12-04T09:55:31.507Z,101416.50
2022-12-04T09:58:01.780Z,101416.72
2022-12-04T10:00:28.708Z,101408.44
2022-12-04T10:02:55.125Z,101407.63
2022-12-04T10:05:21.567Z,101405.50
2022-12-04T10:07:47.902Z,101401.19
2022-12-04T10:10:14.345Z,101406.56
2022-12-04T10:12:40.652Z,101402.22
2022-12-04T10:15:07.093Z,101388.94
2022-12-04T10:17:33.731Z,101391.84
2022-12-04T10:19:59.987Z,101392.69
2022-12-04T10:22:26.600Z,101385.63
2022-12-04T10:24:53.180Z,101380.03
2022-12-04T10:27:19.625Z,101391.28
2022-12-04T10:29:46.067Z,101382.56
2022-12-04T10:32:12.501Z,101384.00
2022-12-04T10:34:42.613Z,101385.63
2022-12-04T10:37:12.221Z,101376.31
2022-12-04T10:39:38.773Z,101378.00
2022-12-04T10:42:05.066Z,101390.41
2022-12-04T10:44:31.435Z,101389.13
2022-12-04T10:46:57.840Z,101384.59
2022-12-04T10:49:24.483Z,101384.81
2022-12-04T10:51:50.907Z,101383.31
2022-12-04T10:54:17.363Z,101383.78
2022-12-04T10:56:43.777Z,101379.63
2022-12-04T10:59:10.140Z,101379.19
2022-12-04T11:01:36.717Z,101383.53
2022-12-04T11:04:03.071Z,101378.72
2022-12-04T11:06:29.595Z,101375.59
2022-12-04T11:08:55.933Z,101369.16
2022-12-04T11:11:22.222Z,101370.81
2022-12-04T11:13:48.576Z,101369.78
2022-12-04T11:16:14.966Z,101368.50
2022-12-04T11:18:41.657Z,101370.97
2022-12-04T11:21:08.063Z,101373.69
2022-12-04T11:23:34.390Z,101360.78
2022-12-04T11:26:05.559Z,101355.41
2022-12-04T11:28:47.894Z,101348.94
2022-12-04T11:31:14.499Z,101338.78
2022-12-04T11:33:40.965Z,101336.94
2022-12-04T11:36:07.437Z,101333.19
2022-12-04T11:38:34.017Z,101338.56
2022-12-04T11:41:00.329Z,101346.66
2022-12-04T11:43:27.094Z,101343.97
2022-12-04T11:45:53.624Z,101346.44
2022-12-04T11:48:20.001Z,101344.75
2022-12-04T11:50:46.513Z,101340.88
2022-12-04T11:53:13.001Z,101347.72
2022-12-04T11:55:39.424Z,101341.50
2022-12-04T11:58:05.703Z,101340.88
2022-12-04T12:00:32.001Z,101338.16
2022-12-04T12:02:59.734Z,101343.34
2022-12-04T12:05:26.282Z,101329.06
2022-12-04T12:07:55.277Z,101319.78
2022-12-04T12:10:25.517Z,101325.03
2022-12-04T12:12:51.936Z,101323.31
2022-12-04T12:15:18.361Z,101324.94
2022-12-04T12:17:44.594Z,101308.97
2022-12-04T12:20:11.120Z,101307.25
2022-12-04T12:22:37.403Z,101318.44
2022-12-04T12:25:04.028Z,101320.22
2022-12-04T12:27:30.318Z,101314.59
2022-12-04T12:29:56.929Z,101315.81
2022-12-04T12:32:23.431Z,101312.91
2022-12-04T12:34:49.742Z,101324.25
2022-12-04T12:37:16.183Z,101318.44
2022-12-04T12:39:42.622Z,101322.75
2022-12-04T12:42:08.919Z,101325.59
2022-12-04T12:44:35.302Z,101313.47
2022-12-04T12:47:02.052Z,101312.72
2022-12-04T12:49:28.370Z,101313.63
2022-12-04T12:51:54.755Z,101311.41
2022-12-04T12:54:21.048Z,101310.38
2022-12-04T12:56:49.743Z,101301.72
2022-12-04T12:59:16.533Z,101304.56
2022-12-04T13:01:43.093Z,101308.47
2022-12-04T13:04:09.679Z,101308.03
2022-12-04T13:06:36.058Z,101306.16
2022-12-04T13:09:02.327Z,101307.56
2022-12-04T13:11:28.698Z,101308.31
2022-12-04T13:13:55.035Z,101309.63
2022-12-04T13:16:21.588Z,101308.88
2022-12-04T13:18:48.058Z,101302.41
2022-12-04T13:21:14.447Z,101300.63
2022-12-04T13:23:40.821Z,101294.63
2022-12-04T13:26:07.453Z,101297.94
2022-12-04T13:28:33.927Z,101293.63
2022-12-04T13:31:00.673Z,101292.22
2022-12-04T13:33:27.024Z,101294.09
2022-12-04T13:35:53.616Z,101285.19
2022-12-04T13:38:20.067Z,101279.44
2022-12-04T13:40:46.483Z,101278.38
2022-12-04T13:43:12.926Z,101279.44
2022-12-04T13:45:39.538Z,101273.19
2022-12-04T13:48:06.056Z,101268.63
2022-12-04T13:50:32.344Z,101269.00
2022-12-04T13:52:58.645Z,101269.81
2022-12-04T13:55:25.126Z,101271.38
2022-12-04T13:57:51.558Z,101263.50
2022-12-04T14:00:17.919Z,101276.75
2022-12-04T14:02:44.388Z,101272.44
2022-12-04T14:05:10.746Z,101273.03
2022-12-04T14:07:37.277Z,101274.47
2022-12-04T14:10:03.687Z,101276.34
2022-12-04T14:12:30.109Z,101272.59
2022-12-04T14:14:56.988Z,101269.06
2022-12-04T14:17:24.012Z,101270.69
2022-12-04T14:19:50.504Z,101278.34
2022-12-04T14:22:17.082Z,101280.59
2022-12-04T14:24:43.419Z,101276.59
2022-12-04T14:27:12.091Z,101282.84
2022-12-04T14:29:38.830Z,101282.53
2022-12-04T14:32:05.215Z,101280.31
2022-12-04T14:34:31.514Z,101272.69
2022-12-04T14:36:57.914Z,101279.03
2022-12-04T14:39:24.400Z,101272.09
2022-12-04T14:41:50.767Z,101271.88
2022-12-04T14:44:17.226Z,101274.94
2022-12-04T14:46:43.657Z,101278.00
2022-12-04T14:49:10.307Z,101284.34
2022-12-04T14:51:36.815Z,101287.28
2022-12-04T14:54:03.378Z,101294.19
2022-12-04T14:56:30.014Z,101288.91
2022-12-04T14:58:56.389Z,101284.06
2022-12-04T15:01:28.752Z,101280.19
2022-12-04T15:03:56.008Z,101287.59
2022-12-04T15:06:22.375Z,101290.75
2022-12-04T15:08:48.775Z,101287.94
2022-12-04T15:11:15.234Z,101292.38
2022-12-04T15:13:41.626Z,101286.63
2022-12-04T15:16:08.049Z,101283.56
2022-12-04T15:18:39.428Z,101281.53
2022-12-04T15:21:06.215Z,101293.84
2022-12-04T15:23:32.596Z,101277.28
2022-12-04T15:25:58.889Z,101279.63
2022-12-04T15:28:25.184Z,101282.16
2022-12-04T15:30:51.517Z,101276.41
2022-12-04T15:33:21.490Z,101279.78
2022-12-04T15:35:48.332Z,101286.47
2022-12-04T15:38:14.609Z,101273.66
2022-12-04T15:40:40.894Z,101274.94
2022-12-04T15:43:07.256Z,101274.56
2022-12-04T15:45:33.589Z,101275.84
2022-12-04T15:47:59.862Z,101277.59
2022-12-04T15:50:26.399Z,101282.63
2022-12-04T15:52:52.684Z,101272.28
2022-12-04T15:55:19.100Z,101280.22
2022-12-04T15:57:45.390Z,101271.53
2022-12-04T16:00:11.799Z,101286.28
2022-12-04T16:02:38.175Z,101282.41
2022-12-04T16:05:04.480Z,101289.06
2022-12-04T16:07:30.911Z,101287.88
2022-12-04T16:10:02.812Z,101294.75
2022-12-04T16:12:30.272Z,101288.16
2022-12-04T16:14:56.773Z,101291.34
2022-12-04T16:17:23.276Z,101280.78
2022-12-04T16:19:49.571Z,101283.31
2022-12-04T16:22:19.346Z,101279.44
2022-12-04T16:24:46.694Z,101270.72
2022-12-04T16:27:13.004Z,101272.22
2022-12-04T16:29:39.352Z,101280.53
2022-12-04T16:32:06.013Z,101274.97
2022-12-04T16:34:32.425Z,101273.31
2022-12-04T16:36:58.756Z,101272.97
2022-12-04T16:39:25.057Z,101273.19
2022-12-04T16:41:51.422Z,101270.91
2022-12-04T16:44:17.675Z,101264.34
2022-12-04T16:46:44.127Z,101263.75
2022-12-04T16:49:10.618Z,101268.50
2022-12-04T16:51:36.885Z,101259.22
2022-12-04T16:54:03.306Z,101255.94
2022-12-04T16:56:29.728Z,101264.47
2022-12-04T16:58:56.175Z,101256.81
2022-12-04T17:01:22.527Z,101259.75
2022-12-04T17:03:49.030Z,101255.88
2022-12-04T17:06:15.525Z,101248.00
2022-12-04T17:08:41.850Z,101252.19
2022-12-04T17:11:08.200Z,101255.94
2022-12-04T17:13:34.481Z,101244.53
2022-12-04T17:16:00.925Z,101244.41
2022-12-04T17:18:27.396Z,101243.78
2022-12-04T17:20:53.751Z,101242.56
2022-12-04T17:23:20.036Z,101239.88
2022-12-04T17:25:46.373Z,101243.03
2022-12-04T17:28:12.848Z,101243.47
2022-12-04T17:30:39.150Z,101246.59
2022-12-04T17:33:05.499Z,101236.66
2022-12-04T17:35:31.905Z,101240.41
2022-12-04T17:38:03.882Z,101236.28
2022-12-04T17:40:32.264Z,101239.19
2022-12-04T17:42:58.592Z,101237.75
2022-12-04T17:45:24.916Z,101234.44
2022-12-04T17:47:51.293Z,101242.75
2022-12-04T17:50:17.606Z,101244.00
2022-12-04T17:52:43.962Z,101242.00
2022-12-04T17:55:10.517Z,101233.09
2022-12-04T17:57:36.980Z,101236.19
2022-12-04T18:00:03.286Z,101237.25
2022-12-04T18:02:29.634Z,101237.69
2022-12-04T18:04:56.247Z,101236.03
2022-12-04T18:07:22.751Z,101237.09
2022-12-04T18:09:49.200Z,101239.16
2022-12-04T18:12:15.613Z,101239.59
2022-12-04T18:14:42.340Z,101238.16
2022-12-04T18:17:08.627Z,101246.44
2022-12-04T18:19:35.048Z,101249.13
2022-12-04T18:22:01.348Z,101244.81
2022-12-04T18:24:27.752Z,101244.19
2022-12-04T18:26:54.186Z,101239.22
2022-12-04T18:29:20.545Z,101244.38
2022-12-04T18:31:47.147Z,101240.06
2022-12-04T18:34:13.437Z,101230.78
2022-12-04T18:36:39.764Z,101231.63
2022-12-04T18:39:06.028Z,101226.66
2022-12-04T18:41:32.566Z,101229.56
2022-12-04T18:43:58.971Z,101228.50
2022-12-04T18:46:25.414Z,101236.81
2022-12-04T18:48:51.932Z,101231.88
2022-12-04T18:51:18.254Z,101228.97
2022-12-04T18:53:44.684Z,101229.19
2022-12-04T18:56:11.097Z,101229.19
2022-12-04T18:58:37.492Z,101219.69
2022-12-04T19:01:03.986Z,101228.56
2022-12-04T19:03:30.371Z,101234.59
2022-12-04T19:05:56.936Z,101238.34
2022-12-04T19:08:24.669Z,101241.03
2022-12-04T19:10:53.723Z,101241.84
2022-12-04T19:13:20.106Z,101236.88
2022-12-04T19:15:46.524Z,101235.44
2022-12-04T19:18:12.866Z,101245.41
2022-12-04T19:20:39.183Z,101244.19
2022-12-04T19:23:05.491Z,101239.59
2022-12-04T19:25:31.893Z,101250.59
2022-12-04T19:27:58.369Z,101252.06
2022-12-04T19:30:24.696Z,101244.22
2022-12-04T19:32:51.086Z,101255.19
2022-12-04T19:35:17.449Z,101249.19
2022-12-04T19:37:48.186Z,101250.22
2022-12-04T19:40:17.688Z,101255.22
2022-12-04T19:42:43.997Z,101254.16
2022-12-04T19:45:10.293Z,101253.56
2022-12-04T19:47:36.610Z,101249.00
2022-12-04T19:50:02.964Z,101246.97
2022-12-04T19:52:29.348Z,101251.53
2022-12-04T19:54:55.644Z,101243.66
2022-12-04T19:57:22.019Z,101239.34
2022-12-04T19:59:48.536Z,101245.97
2022-12-04T20:02:14.998Z,101244.31
2022-12-04T20:04:41.479Z,101245.59
2022-12-04T20:07:07.878Z,101237.72
2022-12-04T20:09:34.188Z,101233.38
2022-12-04T20:12:00.597Z,101230.69
2022-12-04T20:14:26.874Z,101235.25
2022-12-04T20:16:53.206Z,101232.78
2022-12-04T20:19:19.625Z,101232.78
2022-12-04T20:21:46.090Z,101235.06
2022-12-04T20:24:12.437Z,101239.00
2022-12-04T20:26:39.082Z,101227.22
2022-12-04T20:29:05.357Z,101224.97
2022-12-04T20:31:31.732Z,101212.56
2022-12-04T20:33:57.969Z,101218.97
2022-12-04T20:36:24.310Z,101222.47
2022-12-04T20:38:50.609Z,101222.69
2022-12-04T20:41:16.905Z,101229.94
2022-12-04T20:43:43.173Z,101227.25
2022-12-04T20:46:09.657Z,101222.50
2022-12-04T20:48:36.126Z,101215.28
2022-12-04T20:51:02.439Z,101221.91
2022-12-04T20:53:28.742Z,101215.91
2022-12-04T20:55:55.052Z,101206.81
2022-12-04T20:58:21.395Z,101215.31
2022-12-04T21:00:47.703Z,101208.91
2022-12-04T21:03:14.204Z,101218.00
2022-12-04T21:05:40.576Z,101203.94
2022-12-04T21:08:06.982Z,101206.03
2022-12-04T21:10:33.503Z,101207.03
2022-12-04T21:12:59.860Z,101207.25
2022-12-04T21:15:26.235Z,101201.25
2022-12-04T21:17:52.547Z,101201.25
2022-12-04T21:20:18.886Z,101210.34
2022-12-04T21:22:45.171Z,101205.19
2022-12-04T21:25:11.510Z,101213.25
2022-12-04T21:27:37.816Z,101208.09
2022-12-04T21:30:04.308Z,101202.91
2022-12-04T21:32:30.677Z,101201.91
2022-12-04T21:34:56.938Z,101207.28
2022-12-04T21:37:23.288Z,101211.41
2022-12-04T21:39:49.587Z,101213.91
2022-12-04T21:42:16.076Z,101207.31
2022-12-04T21:44:42.402Z,101217.00
2022-12-04T21:47:08.845Z,101212.66
2022-12-04T21:49:35.132Z,101220.94
2022-12-04T21:52:01.494Z,101215.56
2022-12-04T21:54:27.976Z,101215.56
2022-12-04T21:56:54.294Z,101207.91
2022-12-04T21:59:20.613Z,101208.75
2022-12-04T22:01:47.097Z,101201.97
2022-12-04T22:04:13.477Z,101206.50
2022-12-04T22:06:39.896Z,101196.16
2022-12-04T22:09:06.271Z,101201.53
2022-12-04T22:11:32.762Z,101203.22
2022-12-04T22:13:59.090Z,101192.88
2022-12-04T22:16:29.804Z,101192.03
2022-12-04T22:18:57.072Z,101190.41
2022-12-04T22:21:23.534Z,101194.34
2022-12-04T22:23:49.961Z,101185.44
2022-12-04T22:26:16.288Z,101195.59
2022-12-04T22:28:42.699Z,101195.59
2022-12-04T22:31:09.094Z,101196.63
2022-12-04T22:33:35.450Z,101207.38
2022-12-04T22:36:01.913Z,101204.69
2022-12-04T22:38:28.165Z,101208.38
2022-12-04T22:40:54.440Z,101213.53
2022-12-04T22:43:20.735Z,101202.63
2022-12-04T22:45:47.032Z,101200.97
2022-12-04T22:48:13.538Z,101186.72
2022-12-04T22:50:39.824Z,101188.59
2022-12-04T22:53:06.124Z,101185.50
2022-12-04T22:55:32.404Z,101186.53
2022-12-04T22:57:58.781Z,101193.34
2022-12-04T23:00:25.037Z,101198.31
2022-12-04T23:02:51.458Z,101188.59
2022-12-04T23:05:17.942Z,101191.25
2022-12-04T23:07:44.484Z,101186.34
2022-12-04T23:10:11.034Z,101183.66
2022-12-04T23:12:37.596Z,101187.16
2022-12-04T23:15:04.157Z,101190.06
2022-12-04T23:17:30.508Z,101184.91
2022-12-04T23:19:57.126Z,101183.22
2022-12-04T23:22:23.670Z,101183.47
2022-12-04T23:24:50.148Z,101181.78
2022-12-04T23:27:16.486Z,101188.84
2022-12-04T23:29:53.187Z,101186.34
2022-12-04T23:32:19.753Z,101182.03
2022-12-04T23:34:46.080Z,101182.03
2022-12-04T23:37:12.530Z,101179.75
2022-12-04T23:39:39.000Z,101181.41
2022-12-04T23:42:05.422Z,101177.88
2022-12-04T23:44:31.725Z,101167.38
2022-12-04T23:46:58.162Z,101171.91
2022-12-04T23:49:24.490Z,101169.44
2022-12-04T23:51:50.802Z,101160.56
2022-12-04T23:54:17.180Z,101158.31
2022-12-04T23:56:43.518Z,101159.94
2022-12-04T23:59:09.932Z,101159.13
